createdAt,value
2022-11-16T04:51:15.545Z,8.62
2022-11-16T04:54:19.416Z,8.62
2022-11-16T04:57:22.078Z,8.21
2022-11-16T05:00:25.568Z,8.33
2022-11-16T05:03:28.021Z,8.32
2022-11-16T05:06:31.085Z,8.36
2022-11-16T05:09:33.746Z,8.43
2022-11-16T05:12:36.697Z,8.35
2022-11-16T05:15:40.338Z,8.46
2022-11-16T05:18:43.252Z,8.41
2022-11-16T05:21:47.421Z,8.49
2022-11-16T05:24:50.289Z,8.45
2022-11-16T05:27:53.798Z,8.45
2022-11-16T05:30:56.469Z,8.41
2022-11-16T05:33:58.945Z,8.57
2022-11-16T05:37:02.341Z,8.61
2022-11-16T05:40:05.576Z,8.50
2022-11-16T05:43:09.133Z,8.46
2022-11-16T05:46:12.197Z,8.46
2022-11-16T05:49:16.125Z,8.60
2022-11-16T05:52:19.359Z,8.59
2022-11-16T05:55:21.965Z,8.57
2022-11-16T05:58:24.344Z,8.54
2022-11-16T06:01:27.053Z,8.67
2022-11-16T06:04:29.829Z,8.73
2022-11-16T06:07:34.156Z,8.63
2022-11-16T06:10:37.066Z,8.54
2022-11-16T06:13:40.213Z,8.55
2022-11-16T06:16:43.131Z,8.60
2022-11-16T06:19:46.004Z,8.77
2022-11-16T06:22:48.889Z,8.81
2022-11-16T06:25:55.481Z,8.81
2022-11-16T06:28:58.836Z,8.74
2022-11-16T06:32:01.246Z,8.73
2022-11-16T06:35:04.494Z,8.74
2022-11-16T06:38:09.004Z,8.77
2022-11-16T06:41:11.655Z,8.70
2022-11-16T06:44:14.593Z,8.63
2022-11-16T06:47:17.831Z,8.63
2022-11-16T06:50:20.864Z,8.81
2022-11-16T06:53:28.936Z,8.86
2022-11-16T06:56:34.964Z,8.89
2022-11-16T06:59:37.569Z,8.81
2022-11-16T07:02:40.521Z,8.80
2022-11-16T07:05:43.540Z,8.81
2022-11-16T07:08:46.197Z,8.89
2022-11-16T07:11:50.014Z,8.95
2022-11-16T07:14:53.229Z,8.93
2022-11-16T07:17:56.944Z,8.93
2022-11-16T07:21:14.936Z,8.96
2022-11-16T07:24:18.617Z,9.06
2022-11-16T07:27:22.347Z,9.04
2022-11-16T07:30:25.955Z,8.95
2022-11-16T07:33:29.445Z,8.99
2022-11-16T07:36:34.969Z,9.03
2022-11-16T07:39:37.654Z,9.05
2022-11-16T07:42:43.561Z,9.00
2022-11-16T07:45:48.395Z,9.11
2022-11-16T07:48:51.084Z,9.12
2022-11-16T07:51:55.782Z,9.09
2022-11-16T07:55:01.603Z,9.00
2022-11-16T07:58:04.970Z,8.91
2022-11-16T08:01:13.299Z,8.92
2022-11-16T08:04:17.537Z,8.82
2022-11-16T08:07:20.283Z,8.95
2022-11-16T08:10:23.841Z,8.99
2022-11-16T08:13:26.647Z,8.95
2022-11-16T08:16:29.374Z,8.88
2022-11-16T08:19:32.768Z,9.04
2022-11-16T08:22:36.352Z,9.20
2022-11-16T08:25:39.183Z,9.22
2022-11-16T08:28:43.519Z,9.24
2022-11-16T08:31:46.280Z,9.01
2022-11-16T08:34:49.016Z,9.07
2022-11-16T08:37:51.533Z,9.24
2022-11-16T08:40:56.028Z,9.31
2022-11-16T08:44:00.145Z,9.23
2022-11-16T08:47:03.569Z,9.20
2022-11-16T08:50:06.577Z,9.15
2022-11-16T08:53:10.635Z,9.28
2022-11-16T08:56:13.637Z,9.25
2022-11-16T08:59:17.324Z,9.37
2022-11-16T09:02:25.312Z,9.39
2022-11-16T09:05:28.394Z,9.30
2022-11-16T09:08:31.551Z,9.31
2022-11-16T09:11:34.295Z,9.22
2022-11-16T09:14:36.526Z,9.18
2022-11-16T09:17:39.160Z,9.28
2022-11-16T09:20:45.499Z,9.27
2022-11-16T09:23:48.884Z,9.38
2022-11-16T09:26:51.194Z,9.30
2022-11-16T09:29:53.742Z,9.25
2022-11-16T09:33:00.324Z,9.34
2022-11-16T09:36:08.583Z,9.45
2022-11-16T09:39:30.534Z,9.46
2022-11-16T09:42:54.000Z,9.45
2022-11-16T09:46:26.832Z,9.52
2022-11-16T09:49:43.748Z,9.69
2022-11-16T09:52:51.462Z,10.48
2022-11-16T09:56:08.727Z,9.90
2022-11-16T09:59:25.314Z,9.59
2022-11-16T10:02:34.526Z,9.55
2022-11-16T10:06:38.772Z,9.66
2022-11-16T10:09:41.801Z,9.66
2022-11-16T10:13:19.798Z,9.69
2022-11-16T10:16:44.786Z,9.79
2022-11-16T10:20:02.697Z,9.88
2022-11-16T10:23:53.800Z,9.84
2022-11-16T10:27:34.509Z,9.80
2022-11-16T10:30:46.522Z,9.85
2022-11-16T10:33:54.366Z,9.75
2022-11-16T10:37:07.697Z,9.75
2022-11-16T10:40:20.692Z,9.80
2022-11-16T10:43:30.151Z,9.79
2022-11-16T10:46:40.241Z,9.79
2022-11-16T10:50:11.861Z,9.85
2022-11-16T10:53:25.103Z,9.71
2022-11-16T10:56:37.206Z,9.76
2022-11-16T11:00:00.257Z,9.68
2022-11-16T11:03:03.143Z,9.70
2022-11-16T11:06:11.285Z,9.77
2022-11-16T11:09:27.474Z,9.79
2022-11-16T11:12:39.361Z,9.72
2022-11-16T11:15:42.846Z,9.78
2022-11-16T11:18:45.458Z,9.80
2022-11-16T11:21:48.764Z,9.75
2022-11-16T11:24:52.243Z,9.71
2022-11-16T11:28:28.850Z,9.69
2022-11-16T11:31:47.097Z,9.78
2022-11-16T11:34:53.215Z,9.83
2022-11-16T11:37:59.596Z,9.69
2022-11-16T11:41:06.737Z,9.63
2022-11-16T11:44:17.105Z,9.63
2022-11-16T11:51:13.414Z,9.75
2022-11-16T11:54:35.721Z,9.88
2022-11-16T11:57:42.513Z,9.84
2022-11-16T12:00:56.991Z,9.78
2022-11-16T12:04:18.399Z,9.77
2022-11-16T12:07:43.917Z,9.76
2022-11-16T12:10:52.842Z,9.69
2022-11-16T12:14:11.487Z,9.64
2022-11-16T12:17:26.724Z,9.65
2022-11-16T12:20:57.798Z,9.65
2022-11-16T12:24:20.829Z,9.69
2022-11-16T12:27:51.275Z,9.67
2022-11-16T12:31:19.604Z,9.57
2022-11-16T12:34:35.562Z,9.84
2022-11-16T12:37:41.137Z,9.83
2022-11-16T12:40:58.891Z,9.90
2022-11-16T12:44:08.683Z,9.87
2022-11-16T12:47:37.688Z,9.84
2022-11-16T12:50:57.656Z,9.87
2022-11-16T12:54:33.945Z,9.92
2022-11-16T12:58:14.394Z,9.81
2022-11-16T13:01:37.396Z,9.82
2022-11-16T13:04:57.544Z,9.69
2022-11-16T13:08:10.717Z,9.74
2022-11-16T13:11:25.285Z,9.65
2022-11-16T13:14:46.840Z,9.61
2022-11-16T13:17:57.766Z,9.67
2022-11-16T13:21:21.461Z,9.64
2022-11-16T13:24:32.950Z,9.74
2022-11-16T13:27:38.119Z,9.69
2022-11-16T13:31:01.897Z,9.74
2022-11-16T13:34:15.725Z,9.75
2022-11-16T13:37:46.132Z,9.68
2022-11-16T13:40:48.553Z,9.65
2022-11-16T13:43:51.104Z,9.61
2022-11-16T13:47:05.808Z,9.72
2022-11-16T13:50:18.362Z,9.73
2022-11-16T13:54:42.670Z,9.77
2022-11-16T13:56:58.763Z,9.73
2022-11-16T14:00:00.997Z,9.67
2022-11-16T14:03:15.438Z,9.55
2022-11-16T14:06:24.045Z,9.60
2022-11-16T14:09:48.788Z,9.67
2022-11-16T14:12:53.501Z,9.79
2022-11-16T14:16:14.771Z,9.71
2022-11-16T14:19:49.094Z,9.61
2022-11-16T14:22:56.805Z,9.58
2022-11-16T14:26:12.853Z,9.59
2022-11-16T14:29:24.391Z,9.59
2022-11-16T14:32:33.173Z,9.48
2022-11-16T14:35:40.078Z,9.48
2022-11-16T14:38:43.561Z,9.51
2022-11-16T14:41:47.160Z,9.63
2022-11-16T14:44:50.414Z,9.58
2022-11-16T14:47:58.983Z,9.60
2022-11-16T14:51:13.413Z,9.38
2022-11-16T14:54:33.924Z,9.50
2022-11-16T14:57:36.479Z,9.46
2022-11-16T15:00:38.846Z,9.60
2022-11-16T15:03:54.977Z,9.55
2022-11-16T15:07:03.248Z,9.53
2022-11-16T15:10:14.756Z,9.45
2022-11-16T15:13:23.037Z,9.40
2022-11-16T15:16:26.086Z,9.44
2022-11-16T15:19:30.269Z,9.45
2022-11-16T15:22:40.490Z,9.41
2022-11-16T15:25:54.545Z,9.40
2022-11-16T15:28:57.302Z,9.45
2022-11-16T15:31:59.734Z,9.44
2022-11-16T15:35:05.364Z,9.34
2022-11-16T15:38:20.154Z,9.32
2022-11-16T15:41:24.595Z,9.35
2022-11-16T15:44:28.129Z,9.34
2022-11-16T15:47:30.652Z,9.40
2022-11-16T15:50:33.156Z,9.37
2022-11-16T15:53:44.336Z,9.39
2022-11-16T15:56:47.431Z,9.45
2022-11-16T15:59:54.657Z,9.32
2022-11-16T16:03:05.586Z,9.36
2022-11-16T16:06:15.468Z,9.37
2022-11-16T16:09:22.745Z,9.38
2022-11-16T16:12:26.764Z,9.42
2022-11-16T16:15:33.975Z,9.38
2022-11-16T16:18:42.968Z,9.37
2022-11-16T16:21:46.833Z,9.36
2022-11-16T16:24:49.410Z,9.36
2022-11-16T16:27:51.857Z,9.32
2022-11-16T16:30:54.501Z,9.30
2022-11-16T16:33:56.925Z,9.25
2022-11-16T16:36:59.436Z,9.34
2022-11-16T16:40:02.061Z,9.34
2022-11-16T16:43:04.681Z,9.33
2022-11-16T16:46:07.114Z,9.27
